createdAt,value
2022-08-14T00:01:11.449Z,17.12
2022-08-14T00:03:42.505Z,17.08
2022-08-14T00:06:25.687Z,17.04
2022-08-14T00:09:01.112Z,17.09
2022-08-14T00:11:32.190Z,17.01
2022-08-14T00:14:10.301Z,16.87
2022-08-14T00:16:45.652Z,16.83
2022-08-14T00:19:19.672Z,16.74
2022-08-14T00:21:52.188Z,16.85
2022-08-14T00:24:30.967Z,16.84
2022-08-14T00:27:02.863Z,16.81
2022-08-14T00:29:33.127Z,16.75
2022-08-14T00:32:52.981Z,16.77
2022-08-14T00:35:25.894Z,16.75
2022-08-14T00:38:16.764Z,16.76
2022-08-14T00:40:46.166Z,16.70
2022-08-14T00:43:15.631Z,16.58
2022-08-14T00:45:52.533Z,16.47
2022-08-14T00:48:34.378Z,16.51
2022-08-14T00:51:09.210Z,16.50
2022-08-14T00:53:45.271Z,16.49
2022-08-14T00:56:15.586Z,16.53
2022-08-14T00:58:54.571Z,16.47
2022-08-14T01:01:25.657Z,16.46
2022-08-14T01:03:55.262Z,16.46
2022-08-14T01:06:30.238Z,16.42
2022-08-14T01:09:04.181Z,16.42
2022-08-14T01:11:36.033Z,16.40
2022-08-14T01:14:25.753Z,16.37
2022-08-14T01:17:05.135Z,16.34
2022-08-14T01:19:58.971Z,16.30
2022-08-14T01:22:29.485Z,16.30
2022-08-14T01:25:01.595Z,16.23
2022-08-14T01:27:31.853Z,16.17
2022-08-14T01:30:30.065Z,16.19
2022-08-14T01:32:59.871Z,16.21
2022-08-14T01:36:03.310Z,16.16
2022-08-14T01:38:24.941Z,16.12
2022-08-14T01:40:56.947Z,16.14
2022-08-14T01:43:31.332Z,16.13
2022-08-14T01:46:11.370Z,16.12
2022-08-14T01:48:56.561Z,16.12
2022-08-14T01:51:30.341Z,16.11
2022-08-14T01:54:10.385Z,16.06
2022-08-14T01:56:44.903Z,16.01
2022-08-14T01:59:38.060Z,15.98
2022-08-14T02:02:19.948Z,16.00
2022-08-14T02:04:55.469Z,15.95
2022-08-14T02:07:44.931Z,15.88
2022-08-14T02:10:26.239Z,15.82
2022-08-14T02:12:59.412Z,15.82
2022-08-14T02:15:30.338Z,15.84
2022-08-14T02:18:04.572Z,15.81
2022-08-14T02:20:36.717Z,15.82
2022-08-14T02:23:04.839Z,15.82
2022-08-14T02:25:34.941Z,15.83
2022-08-14T02:28:23.040Z,15.79
2022-08-14T02:31:03.451Z,15.77
2022-08-14T02:33:39.168Z,15.74
2022-08-14T02:37:04.088Z,15.65
2022-08-14T02:39:01.930Z,15.63
2022-08-14T02:41:39.988Z,15.62
2022-08-14T02:44:16.170Z,15.63
2022-08-14T02:47:02.319Z,15.57
2022-08-14T02:49:34.232Z,15.54
2022-08-14T02:52:55.844Z,15.48
2022-08-14T02:55:05.081Z,15.48
2022-08-14T02:57:40.228Z,15.45
2022-08-14T03:00:17.910Z,15.48
2022-08-14T03:02:59.862Z,15.35
2022-08-14T03:05:36.121Z,15.48
2022-08-14T03:08:16.015Z,15.50
2022-08-14T03:10:55.371Z,15.47
2022-08-14T03:13:29.623Z,15.40
2022-08-14T03:16:01.384Z,15.39
2022-08-14T03:18:44.038Z,15.39
2022-08-14T03:21:15.466Z,15.30
2022-08-14T03:23:48.598Z,15.31
2022-08-14T03:26:29.835Z,15.31
2022-08-14T03:29:01.060Z,15.31
2022-08-14T03:31:31.692Z,15.26
2022-08-14T03:34:00.479Z,15.29
2022-08-14T03:37:39.284Z,15.26
2022-08-14T03:39:32.080Z,15.23
2022-08-14T03:42:19.399Z,15.22
2022-08-14T03:45:27.517Z,15.20
2022-08-14T03:47:46.571Z,15.22
2022-08-14T03:50:30.775Z,15.15
2022-08-14T03:53:06.009Z,15.12
2022-08-14T03:55:44.940Z,14.98
2022-08-14T03:58:23.746Z,15.04
2022-08-14T04:01:13.192Z,15.06
2022-08-14T04:03:44.257Z,15.04
2022-08-14T04:06:22.273Z,15.02
2022-08-14T04:08:59.290Z,15.00
2022-08-14T04:11:29.711Z,14.98
2022-08-14T04:13:57.055Z,14.97
2022-08-14T04:16:35.784Z,14.99
2022-08-14T04:19:05.028Z,14.99
2022-08-14T04:21:39.953Z,14.97
2022-08-14T04:24:26.803Z,15.03
2022-08-14T04:27:07.458Z,14.99
2022-08-14T04:29:45.958Z,14.98
2022-08-14T04:33:00.365Z,15.01
2022-08-14T04:35:07.798Z,15.01
2022-08-14T04:38:00.067Z,14.98
2022-08-14T04:40:47.770Z,14.94
2022-08-14T04:43:39.621Z,14.98
2022-08-14T04:46:55.287Z,15.06
2022-08-14T04:49:15.635Z,15.11
2022-08-14T04:51:46.787Z,15.15
2022-08-14T04:54:30.945Z,15.15
2022-08-14T04:57:01.451Z,15.15
2022-08-14T04:59:30.019Z,15.19
2022-08-14T05:01:59.122Z,15.20
2022-08-14T05:04:27.549Z,15.28
2022-08-14T05:06:56.143Z,15.39
2022-08-14T05:09:29.279Z,15.46
2022-08-14T05:13:11.831Z,15.54
2022-08-14T05:14:53.495Z,15.58
2022-08-14T05:17:44.002Z,15.67
2022-08-14T05:21:04.253Z,15.72
2022-08-14T05:23:05.239Z,15.79
2022-08-14T05:25:35.975Z,15.76
2022-08-14T05:28:17.746Z,15.91
2022-08-14T05:31:05.514Z,15.99
2022-08-14T05:33:36.410Z,15.85
2022-08-14T05:36:16.622Z,15.95
2022-08-14T05:38:47.532Z,16.05
2022-08-14T05:41:21.784Z,16.20
2022-08-14T05:43:51.732Z,16.32
2022-08-14T05:46:28.444Z,16.36
2022-08-14T05:49:09.150Z,16.52
2022-08-14T05:51:39.642Z,16.62
2022-08-14T05:54:12.640Z,16.70
2022-08-14T05:56:42.183Z,16.82
2022-08-14T05:59:14.909Z,16.87
2022-08-14T06:01:46.677Z,16.77
2022-08-14T06:04:16.370Z,16.95
2022-08-14T06:06:44.106Z,17.26
2022-08-14T06:09:12.642Z,17.50
2022-08-14T06:11:42.575Z,17.68
2022-08-14T06:14:21.506Z,17.85
2022-08-14T06:16:53.529Z,18.08
2022-08-14T06:19:24.317Z,18.26
2022-08-14T06:21:58.316Z,18.39
2022-08-14T06:24:37.879Z,18.53
2022-08-14T06:27:13.218Z,18.73
2022-08-14T06:29:47.226Z,18.98
2022-08-14T06:32:37.741Z,19.23
2022-08-14T06:35:13.341Z,19.49
2022-08-14T06:37:59.720Z,19.68
2022-08-14T06:40:46.804Z,19.82
2022-08-14T06:43:15.739Z,19.77
2022-08-14T06:45:48.347Z,19.67
2022-08-14T06:48:32.760Z,19.58
2022-08-14T06:51:05.289Z,19.65
2022-08-14T06:53:46.410Z,19.79
2022-08-14T06:56:17.211Z,20.04
2022-08-14T06:58:46.183Z,20.14
2022-08-14T07:01:35.141Z,19.93
2022-08-14T07:04:26.019Z,19.85
2022-08-14T07:07:04.571Z,19.92
2022-08-14T07:09:43.487Z,20.29
2022-08-14T07:12:54.827Z,20.55
2022-08-14T07:15:11.685Z,20.77
2022-08-14T07:17:58.535Z,20.93
2022-08-14T07:20:39.397Z,21.34
2022-08-14T07:23:20.790Z,21.69
2022-08-14T07:25:51.892Z,21.93
2022-08-14T07:28:43.640Z,21.63
2022-08-14T07:31:13.064Z,21.53
2022-08-14T07:33:50.780Z,21.82
2022-08-14T07:36:27.862Z,22.21
2022-08-14T07:39:13.210Z,22.39
2022-08-14T07:41:42.518Z,22.50
2022-08-14T07:44:33.085Z,22.43
2022-08-14T07:47:10.495Z,22.65
2022-08-14T07:49:40.151Z,22.89
2022-08-14T07:52:10.940Z,22.72
2022-08-14T07:54:42.940Z,22.63
2022-08-14T07:57:22.346Z,22.85
2022-08-14T08:00:02.641Z,22.76
2022-08-14T08:02:55.134Z,23.17
2022-08-14T08:05:29.085Z,23.45
2022-08-14T08:08:01.089Z,23.30
2022-08-14T08:10:46.837Z,23.39
2022-08-14T08:13:24.644Z,23.49
2022-08-14T08:16:02.038Z,23.69
2022-08-14T08:18:36.890Z,23.94
2022-08-14T08:21:09.698Z,24.49
2022-08-14T08:23:51.296Z,24.84
2022-08-14T08:26:22.020Z,24.83
2022-08-14T08:29:01.735Z,25.17
2022-08-14T08:31:39.867Z,25.38
2022-08-14T08:34:14.313Z,25.34
2022-08-14T08:36:47.461Z,25.32
2022-08-14T08:39:22.219Z,24.80
2022-08-14T08:42:00.652Z,25.08
2022-08-14T08:44:34.477Z,25.02
2022-08-14T08:47:23.911Z,25.38
2022-08-14T08:49:59.539Z,25.56
2022-08-14T08:52:37.149Z,25.80
2022-08-14T08:55:05.215Z,26.48
2022-08-14T08:57:46.143Z,27.01
2022-08-14T09:00:25.114Z,27.21
2022-08-14T09:03:10.610Z,26.88
2022-08-14T09:06:59.930Z,27.08
2022-08-14T09:08:57.115Z,27.15
2022-08-14T09:11:27.083Z,27.22
2022-08-14T09:13:55.559Z,27.07
2022-08-14T09:16:27.971Z,27.27
2022-08-14T09:19:06.169Z,27.36
2022-08-14T09:21:35.184Z,28.07
2022-08-14T09:24:29.382Z,28.22
2022-08-14T09:26:56.958Z,27.76
2022-08-14T09:29:34.420Z,27.79
2022-08-14T09:32:57.833Z,28.03
2022-08-14T09:36:02.259Z,28.15
2022-08-14T09:38:53.738Z,28.49
2022-08-14T09:42:21.827Z,28.62
2022-08-14T09:45:24.098Z,28.99
2022-08-14T09:47:58.261Z,29.36
2022-08-14T09:50:47.935Z,29.92
2022-08-14T09:54:18.257Z,30.49
2022-08-14T09:56:59.609Z,30.74
2022-08-14T09:59:33.662Z,31.08
2022-08-14T10:02:08.530Z,31.23
2022-08-14T10:04:50.019Z,30.99
2022-08-14T10:07:32.653Z,31.16
2022-08-14T10:10:03.541Z,31.02
2022-08-14T10:12:55.031Z,31.37
2022-08-14T10:15:30.753Z,30.52
2022-08-14T10:18:17.225Z,30.42
2022-08-14T10:21:00.337Z,29.72
2022-08-14T10:23:42.247Z,29.90
2022-08-14T10:26:22.757Z,30.30
2022-08-14T10:29:20.145Z,30.41
2022-08-14T10:32:00.270Z,30.97
2022-08-14T10:34:40.962Z,30.76
2022-08-14T10:37:14.549Z,31.02
2022-08-14T10:40:01.207Z,31.06
2022-08-14T10:42:43.986Z,31.31
2022-08-14T10:45:35.544Z,31.08
2022-08-14T10:48:24.431Z,31.44
2022-08-14T10:51:09.201Z,31.56
2022-08-14T10:53:40.431Z,32.11
2022-08-14T10:56:21.696Z,32.36
2022-08-14T10:59:10.953Z,32.79
2022-08-14T11:01:41.556Z,33.20
2022-08-14T11:04:32.000Z,33.51
2022-08-14T11:07:02.974Z,33.68
2022-08-14T11:09:36.760Z,33.49
2022-08-14T11:12:34.616Z,33.52
2022-08-14T11:15:03.051Z,33.75
2022-08-14T11:17:36.447Z,34.23
2022-08-14T11:20:16.056Z,34.54
2022-08-14T11:22:52.376Z,34.77
2022-08-14T11:25:43.939Z,34.35
2022-08-14T11:28:19.149Z,33.71
2022-08-14T11:30:53.788Z,33.73
2022-08-14T11:33:30.036Z,33.90
2022-08-14T11:36:01.731Z,34.20
2022-08-14T11:38:47.533Z,33.71
2022-08-14T11:41:19.381Z,33.07
2022-08-14T11:43:58.817Z,33.17
2022-08-14T11:46:30.505Z,33.48
2022-08-14T11:49:08.653Z,33.96
2022-08-14T11:51:53.576Z,33.99
2022-08-14T11:54:34.445Z,33.41
2022-08-14T11:57:06.101Z,33.53
2022-08-14T11:59:38.519Z,33.91
2022-08-14T12:03:00.782Z,34.11
2022-08-14T12:05:09.140Z,34.46
2022-08-14T12:07:48.213Z,34.25
2022-08-14T12:10:26.831Z,34.58
2022-08-14T12:13:14.424Z,34.81
2022-08-14T12:16:06.503Z,35.07
2022-08-14T12:18:51.107Z,35.27
2022-08-14T12:21:29.567Z,35.66
2022-08-14T12:24:35.926Z,35.84
2022-08-14T12:26:58.954Z,35.82
2022-08-14T12:29:26.490Z,35.74
2022-08-14T12:32:34.730Z,35.10
2022-08-14T12:35:03.034Z,34.52
2022-08-14T12:37:40.070Z,34.89
2022-08-14T12:40:21.193Z,35.11
2022-08-14T12:42:53.722Z,35.35
2022-08-14T12:45:36.290Z,35.05
2022-08-14T12:48:21.653Z,35.36
2022-08-14T12:50:55.716Z,35.76
2022-08-14T12:53:39.313Z,35.69
2022-08-14T12:56:22.389Z,35.23
2022-08-14T12:59:01.367Z,34.73
2022-08-14T13:02:00.361Z,34.78
2022-08-14T13:04:35.474Z,34.99
2022-08-14T13:07:12.115Z,34.59
2022-08-14T13:09:42.205Z,34.41
2022-08-14T13:12:31.914Z,34.58
2022-08-14T13:15:02.295Z,34.28
2022-08-14T13:17:51.004Z,33.86
2022-08-14T13:20:30.694Z,34.12
2022-08-14T13:23:04.384Z,33.89
2022-08-14T13:25:41.715Z,33.74
2022-08-14T13:29:02.141Z,33.88
2022-08-14T13:31:34.226Z,34.28
2022-08-14T13:34:05.084Z,34.49
2022-08-14T13:36:54.873Z,34.83
2022-08-14T13:39:35.957Z,35.07
2022-08-14T13:42:13.498Z,34.26
2022-08-14T13:44:46.357Z,34.52
2022-08-14T13:47:18.189Z,34.07
2022-08-14T13:49:57.949Z,34.13
2022-08-14T13:52:52.135Z,34.24
2022-08-14T13:55:25.634Z,33.85
2022-08-14T13:58:06.256Z,33.37
2022-08-14T14:00:52.842Z,33.56
2022-08-14T14:03:30.400Z,33.51
2022-08-14T14:06:03.566Z,33.46
2022-08-14T14:08:47.886Z,33.28
2022-08-14T14:11:29.936Z,33.60
2022-08-14T14:14:09.977Z,33.52
2022-08-14T14:16:59.814Z,33.41
2022-08-14T14:19:38.116Z,33.16
2022-08-14T14:22:35.451Z,33.17
2022-08-14T14:25:04.472Z,33.15
2022-08-14T14:27:40.995Z,33.36
2022-08-14T14:30:31.951Z,33.38
2022-08-14T14:33:06.658Z,33.19
2022-08-14T14:35:46.829Z,33.13
2022-08-14T14:38:18.522Z,33.10
2022-08-14T14:41:00.970Z,32.99
2022-08-14T14:43:41.303Z,33.15
2022-08-14T14:46:16.588Z,33.21
2022-08-14T14:48:54.168Z,32.86
2022-08-14T14:51:26.836Z,32.52
2022-08-14T14:53:57.914Z,32.54
2022-08-14T14:56:51.645Z,32.46
2022-08-14T14:59:17.695Z,32.51
2022-08-14T15:01:52.737Z,32.75
2022-08-14T15:04:22.036Z,32.76
2022-08-14T15:06:53.050Z,32.45
2022-08-14T15:09:21.085Z,32.50
2022-08-14T15:11:53.872Z,32.30
2022-08-14T15:14:55.197Z,32.35
2022-08-14T15:17:16.122Z,32.44
2022-08-14T15:19:56.373Z,32.69
2022-08-14T15:22:29.963Z,32.86
2022-08-14T15:24:58.721Z,32.84
2022-08-14T15:27:32.914Z,32.82
2022-08-14T15:30:08.874Z,32.57
2022-08-14T15:32:46.009Z,32.31
2022-08-14T15:35:18.515Z,32.25
2022-08-14T15:37:55.967Z,32.14
2022-08-14T15:40:26.569Z,31.85
2022-08-14T15:42:56.857Z,31.72
2022-08-14T15:45:27.403Z,31.70
2022-08-14T15:47:58.325Z,31.81
2022-08-14T15:50:26.355Z,31.85
2022-08-14T15:52:58.585Z,31.81
2022-08-14T15:55:29.680Z,31.87
2022-08-14T15:58:03.119Z,31.76
2022-08-14T16:00:58.041Z,31.82
2022-08-14T16:03:35.728Z,31.82
2022-08-14T16:06:15.423Z,31.83
2022-08-14T16:08:58.850Z,31.70
2022-08-14T16:11:33.182Z,31.68
2022-08-14T16:14:06.762Z,31.47
2022-08-14T16:16:49.841Z,31.23
2022-08-14T16:19:23.808Z,30.97
2022-08-14T16:22:01.660Z,30.91
2022-08-14T16:25:01.955Z,30.90
2022-08-14T16:27:40.965Z,30.84
2022-08-14T16:30:24.982Z,30.80
2022-08-14T16:33:06.996Z,30.54
2022-08-14T16:35:43.119Z,30.51
2022-08-14T16:38:47.908Z,30.48
2022-08-14T16:41:29.594Z,30.35
2022-08-14T16:44:23.173Z,30.15
2022-08-14T16:47:16.357Z,30.10
2022-08-14T16:50:04.562Z,30.07
2022-08-14T16:52:44.510Z,30.12
2022-08-14T16:55:14.302Z,30.04
2022-08-14T16:58:04.438Z,30.07
2022-08-14T17:00:45.175Z,29.95
2022-08-14T17:03:17.317Z,29.75
2022-08-14T17:05:46.942Z,29.62
2022-08-14T17:08:41.748Z,29.54
2022-08-14T17:11:21.074Z,29.47
2022-08-14T17:14:01.526Z,29.49
2022-08-14T17:16:38.182Z,29.38
2022-08-14T17:19:19.805Z,29.25
2022-08-14T17:21:57.718Z,29.19
2022-08-14T17:24:56.308Z,29.01
2022-08-14T17:27:19.563Z,28.80
2022-08-14T17:29:56.531Z,28.58
2022-08-14T17:32:44.417Z,28.53
2022-08-14T17:35:57.737Z,28.45
2022-08-14T17:38:33.610Z,28.28
2022-08-14T17:41:24.053Z,28.22
2022-08-14T17:44:34.497Z,28.08
2022-08-14T17:47:23.016Z,28.09
2022-08-14T17:49:52.316Z,27.98
2022-08-14T17:52:33.956Z,27.89
2022-08-14T17:55:09.218Z,27.91
2022-08-14T17:57:41.034Z,27.84
2022-08-14T18:00:15.755Z,27.67
2022-08-14T18:02:50.635Z,27.70
2022-08-14T18:05:23.046Z,27.72
2022-08-14T18:08:33.008Z,27.66
2022-08-14T18:10:55.061Z,27.60
2022-08-14T18:13:51.015Z,27.49
2022-08-14T18:16:31.115Z,27.46
2022-08-14T18:19:12.477Z,27.42
2022-08-14T18:21:56.770Z,27.36
2022-08-14T18:24:37.037Z,27.26
2022-08-14T18:27:22.840Z,27.22
2022-08-14T18:30:32.027Z,27.14
2022-08-14T18:32:56.054Z,27.11
2022-08-14T18:35:59.333Z,27.10
2022-08-14T18:38:55.198Z,27.00
2022-08-14T18:41:40.993Z,26.96
2022-08-14T18:44:10.731Z,26.88
2022-08-14T18:48:06.443Z,26.77
2022-08-14T18:50:36.287Z,26.70
2022-08-14T18:53:12.402Z,26.60
2022-08-14T18:55:54.467Z,26.62
2022-08-14T18:58:57.099Z,26.61
2022-08-14T19:01:30.407Z,26.58
2022-08-14T19:04:08.302Z,26.57
2022-08-14T19:06:40.913Z,26.44
2022-08-14T19:09:56.245Z,26.32
2022-08-14T19:13:13.088Z,26.21
2022-08-14T19:15:45.882Z,26.16
2022-08-14T19:18:38.516Z,26.00
2022-08-14T19:21:36.254Z,25.88
2022-08-14T19:24:45.250Z,25.81
2022-08-14T19:27:37.813Z,25.61
2022-08-14T19:30:23.433Z,25.57
2022-08-14T19:33:05.270Z,25.44
2022-08-14T19:36:00.770Z,25.37
2022-08-14T19:39:04.170Z,25.27
2022-08-14T19:41:35.879Z,25.19
2022-08-14T19:44:31.655Z,25.08
2022-08-14T19:47:04.925Z,24.98
2022-08-14T19:50:08.189Z,24.93
2022-08-14T19:52:39.612Z,24.81
2022-08-14T19:55:19.009Z,24.70
2022-08-14T19:57:52.391Z,24.62
2022-08-14T20:00:51.735Z,24.53
2022-08-14T20:03:27.082Z,24.35
2022-08-14T20:06:18.148Z,24.24
2022-08-14T20:10:59.459Z,24.15
2022-08-14T20:12:01.731Z,24.10
2022-08-14T20:14:39.480Z,24.00
2022-08-14T20:17:25.716Z,23.85
2022-08-14T20:19:56.188Z,23.76
2022-08-14T20:22:38.613Z,23.67
2022-08-14T20:25:19.905Z,23.62
2022-08-14T20:27:59.249Z,23.54
2022-08-14T20:30:33.712Z,23.41
2022-08-14T20:33:11.339Z,23.37
2022-08-14T20:35:49.471Z,23.25
2022-08-14T20:38:29.742Z,23.19
2022-08-14T20:41:09.765Z,23.13
2022-08-14T20:44:06.444Z,23.10
2022-08-14T20:46:39.501Z,22.97
2022-08-14T20:49:19.453Z,22.76
2022-08-14T20:52:05.015Z,22.66
2022-08-14T20:54:51.671Z,22.59
2022-08-14T20:57:23.476Z,22.60
2022-08-14T20:59:59.104Z,22.66
2022-08-14T21:02:55.335Z,22.53
2022-08-14T21:05:33.463Z,22.47
2022-08-14T21:08:08.315Z,22.44
2022-08-14T21:10:44.157Z,22.39
2022-08-14T21:14:09.204Z,22.36
2022-08-14T21:16:35.062Z,22.22
2022-08-14T21:19:05.768Z,22.26
2022-08-14T21:21:42.408Z,22.25
2022-08-14T21:24:38.416Z,22.06
2022-08-14T21:27:12.970Z,22.06
2022-08-14T21:30:00.368Z,21.99
2022-08-14T21:32:50.627Z,21.94
2022-08-14T21:35:30.371Z,21.94
2022-08-14T21:37:59.735Z,21.94
2022-08-14T21:40:42.286Z,21.88
2022-08-14T21:43:19.500Z,21.79
2022-08-14T21:45:54.358Z,21.68
2022-08-14T21:48:30.638Z,21.62
2022-08-14T21:51:54.720Z,21.55
2022-08-14T21:53:59.498Z,21.55
2022-08-14T21:56:56.760Z,21.41
2022-08-14T21:59:32.676Z,21.36
2022-08-14T22:02:05.076Z,21.33
2022-08-14T22:04:39.946Z,21.28
2022-08-14T22:07:18.210Z,21.24
2022-08-14T22:09:55.016Z,21.18
2022-08-14T22:12:57.338Z,21.00
2022-08-14T22:15:24.643Z,21.01
2022-08-14T22:18:02.163Z,20.92
2022-08-14T22:20:33.382Z,20.93
2022-08-14T22:23:08.769Z,20.90
2022-08-14T22:25:49.478Z,20.78
2022-08-14T22:28:27.348Z,20.69
2022-08-14T22:31:09.890Z,20.62
2022-08-14T22:33:43.006Z,20.60
2022-08-14T22:36:42.414Z,20.60
2022-08-14T22:40:17.553Z,20.58
2022-08-14T22:42:21.224Z,20.52
2022-08-14T22:44:56.568Z,20.48
2022-08-14T22:47:40.355Z,20.44
2022-08-14T22:50:28.931Z,20.37
2022-08-14T22:53:04.285Z,20.24
2022-08-14T22:55:36.453Z,20.25
2022-08-14T22:58:05.150Z,20.21
2022-08-14T23:00:43.078Z,20.22
2022-08-14T23:03:17.393Z,20.20
2022-08-14T23:05:53.040Z,20.15
2022-08-14T23:09:00.091Z,20.14
2022-08-14T23:11:13.508Z,19.97
2022-08-14T23:13:46.070Z,19.97
2022-08-14T23:16:20.405Z,19.96
2022-08-14T23:18:55.759Z,19.95
2022-08-14T23:21:28.916Z,19.91
2022-08-14T23:23:58.690Z,19.80
2022-08-14T23:26:49.271Z,19.79
2022-08-14T23:29:22.745Z,19.75
2022-08-14T23:31:52.768Z,19.82
2022-08-14T23:34:24.195Z,19.84
2022-08-14T23:36:56.835Z,19.84
2022-08-14T23:39:36.082Z,19.80
2022-08-14T23:42:11.621Z,19.81
2022-08-14T23:44:45.746Z,19.74
2022-08-14T23:47:26.084Z,19.50
2022-08-14T23:50:03.295Z,19.48
2022-08-14T23:52:50.707Z,19.53
2022-08-14T23:55:35.095Z,19.55
2022-08-14T23:58:05.514Z,19.50
